Time;durP1;ratioP1;P1;durP2;ratioP2;P2;SDS_P1;SDS_P2;PMS_P1;PMS_P2;Temp;Humidity;BMP_temperature;BMP_pressure;BME280_temperature;BME280_humidity;BME280_pressure;Samples;Min_cycle;Max_cycle;Signal;HPM_P1;HPM_P2
2021/06/27 00:01:12;;;;;;;;;17.25;15.25;;;;;21.15;60.07;100271.25;5072687;27;45683;-77
2021/06/27 00:03:38;;;;;;;;;17.50;16.25;;;;;21.17;59.97;100279.09;5072926;28;45433;-77
2021/06/27 00:06:04;;;;;;;;;17.75;16.75;;;;;21.16;59.98;100280.91;5073566;28;48906;-78
2021/06/27 00:08:30;;;;;;;;;18.00;17.25;;;;;21.16;60.38;100290.69;5057285;28;45582;-77
2021/06/27 00:10:58;;;;;;;;;18.75;16.25;;;;;21.17;60.05;100303.00;5072417;28;45393;-76
2021/06/27 00:13:24;;;;;;;;;17.25;14.50;;;;;21.16;59.91;100303.97;5056281;28;46214;-76
2021/06/27 00:15:50;;;;;;;;;16.50;16.00;;;;;21.15;60.07;100302.28;5073809;28;45753;-76
2021/06/27 00:18:18;;;;;;;;;16.50;15.50;;;;;21.15;60.20;100297.81;5074831;28;45528;-76
2021/06/27 00:20:44;;;;;;;;;17.75;16.50;;;;;21.16;60.16;100288.03;5075995;28;45284;-76
2021/06/27 00:23:10;;;;;;;;;19.00;18.25;;;;;21.16;60.05;100288.03;5072858;28;46369;-77
2021/06/27 00:25:36;;;;;;;;;16.00;15.75;;;;;21.15;60.12;100297.81;5058673;28;45436;-76
2021/06/27 00:28:01;;;;;;;;;15.25;14.00;;;;;21.15;59.64;100295.16;5074893;27;45237;-77
2021/06/27 00:30:28;;;;;;;;;15.50;15.25;;;;;21.17;59.92;100289.72;5074421;28;45413;-74
2021/06/27 00:32:53;;;;;;;;;16.50;16.00;;;;;21.15;59.93;100303.13;5055768;28;47144;-78
2021/06/27 00:35:19;;;;;;;;;20.00;19.00;;;;;21.15;59.97;100308.44;5072673;28;45512;-76
2021/06/27 00:37:45;;;;;;;;;16.75;16.75;;;;;21.16;59.99;100317.25;5074040;28;45688;-77
2021/06/27 00:40:12;;;;;;;;;15.00;15.00;;;;;21.16;59.97;100311.94;5053018;28;45436;-77
2021/06/27 00:42:38;;;;;;;;;17.50;15.75;;;;;21.16;60.29;100307.47;5072233;28;49246;-77
2021/06/27 00:45:05;;;;;;;;;20.00;18.75;;;;;21.15;59.96;100312.91;5070162;28;45393;-76
2021/06/27 00:47:34;;;;;;;;;15.50;15.50;;;;;21.15;60.28;100310.25;5054928;28;45405;-76
2021/06/27 00:50:00;;;;;;;;;19.25;15.00;;;;;21.12;60.17;100313.97;5054354;28;45480;-77
2021/06/27 00:52:25;;;;;;;;;10.25;10.00;;;;;21.13;60.01;100312.16;5037216;28;46098;-77
2021/06/27 00:54:51;;;;;;;;;17.50;17.50;;;;;21.12;60.14;100302.50;5069331;28;52062;-78
2021/06/27 00:57:17;;;;;;;;;17.25;16.75;;;;;21.12;60.10;100311.31;5057687;28;45355;-77
2021/06/27 00:59:42;;;;;;;;;18.75;17.50;;;;;21.13;59.86;100305.06;5070927;28;45401;-77
2021/06/27 01:02:07;;;;;;;;;19.50;17.25;;;;;21.13;60.19;100298.88;5067978;28;45419;-77
2021/06/27 01:04:33;;;;;;;;;19.00;17.00;;;;;21.14;60.29;100305.91;5055406;28;53326;-77
2021/06/27 01:06:58;;;;;;;;;17.00;17.00;;;;;21.14;60.16;100305.91;5074415;28;47981;-77
2021/06/27 01:09:24;;;;;;;;;17.00;15.25;;;;;21.12;60.32;100303.34;5075298;28;45556;-76
2021/06/27 01:11:49;;;;;;;;;22.00;19.75;;;;;21.13;60.23;100301.53;5074093;28;51373;-77
2021/06/27 01:14:14;;;;;;;;;20.50;15.75;;;;;21.11;60.29;100279.56;5072419;28;55149;-76
2021/06/27 01:16:40;;;;;;;;;19.00;18.50;;;;;21.12;60.54;100270.63;5075580;28;45460;-76
2021/06/27 01:19:07;;;;;;;;;18.50;16.75;;;;;21.11;60.46;100245.88;5076934;28;45323;-76
2021/06/27 01:21:35;;;;;;;;;18.25;17.75;;;;;21.08;60.48;100254.09;5075835;28;45483;-78
2021/06/27 01:24:00;;;;;;;;;19.25;17.50;;;;;21.06;60.54;100261.31;5059070;28;45528;-77
2021/06/27 01:26:26;;;;;;;;;20.25;19.00;;;;;21.03;60.67;100259.72;5077038;27;45885;-78
2021/06/27 01:28:52;;;;;;;;;20.50;20.25;;;;;21.00;60.46;100251.97;5076193;28;45482;-78
2021/06/27 01:31:18;;;;;;;;;16.75;16.75;;;;;20.99;60.56;100274.19;5076496;28;45505;-79
2021/06/27 01:33:46;;;;;;;;;20.50;19.75;;;;;20.96;60.69;100269.09;5058803;28;45389;-78
2021/06/27 01:36:12;;;;;;;;;17.50;17.00;;;;;20.93;60.95;100285.25;5077173;28;45370;-78
2021/06/27 01:38:37;;;;;;;;;21.75;20.25;;;;;20.90;60.80;100274.88;5076376;28;45468;-78
2021/06/27 01:41:04;;;;;;;;;21.75;19.50;;;;;20.88;61.05;100263.50;5076752;28;45440;-77
2021/06/27 01:43:30;;;;;;;;;22.00;20.75;;;;;20.87;60.80;100256.50;5059592;28;45432;-76
2021/06/27 01:45:57;;;;;;;;;21.50;19.25;;;;;20.88;61.09;100246.72;5077741;28;55970;-79
2021/06/27 01:48:23;;;;;;;;;19.25;18.25;;;;;20.87;61.06;100251.19;5077295;28;45570;-78
2021/06/27 01:50:49;;;;;;;;;21.75;20.00;;;;;20.88;60.93;100257.34;5077466;27;46431;-77
2021/06/27 01:53:18;;;;;;;;;20.00;17.75;;;;;20.88;60.90;100242.28;5059216;28;45481;-79
2021/06/27 01:55:43;;;;;;;;;21.50;20.25;;;;;20.90;60.76;100237.69;5058516;28;45480;-77
2021/06/27 01:58:09;;;;;;;;;23.50;19.75;;;;;20.91;60.91;100231.44;5077005;28;45501;-76
2021/06/27 02:00:34;;;;;;;;;20.00;20.00;;;;;20.92;61.17;100227.81;5076821;28;46204;-78
2021/06/27 02:03:00;;;;;;;;;20.25;18.50;;;;;20.91;61.12;100234.06;5059147;28;45446;-77
2021/06/27 02:05:26;;;;;;;;;20.25;18.75;;;;;20.91;61.00;100241.19;5074996;28;45719;-78
2021/06/27 02:07:51;;;;;;;;;22.75;19.25;;;;;20.92;60.79;100237.59;5075260;28;45386;-76
2021/06/27 02:10:21;;;;;;;;;22.75;19.75;;;;;20.93;60.87;100240.13;5076774;28;45498;-77
2021/06/27 02:12:47;;;;;;;;;20.75;17.00;;;;;20.93;61.29;100223.34;5075519;27;45352;-79
2021/06/27 02:15:13;;;;;;;;;22.25;22.25;;;;;20.95;61.29;100216.97;5074968;28;45542;-78
2021/06/27 02:17:52;;;;;;;;;22.25;19.50;;;;;20.96;60.82;100213.34;5061048;28;45772;-75
2021/06/27 02:20:17;;;;;;;;;17.75;17.00;;;;;20.96;60.77;100208.03;5079266;28;45499;-78
2021/06/27 02:22:43;;;;;;;;;21.00;21.00;;;;;20.96;61.02;100200.06;5076377;28;45466;-78
2021/06/27 02:25:09;;;;;;;;;21.75;19.75;;;;;20.96;60.95;100184.13;5083995;28;45442;-76
2021/06/27 02:27:34;;;;;;;;;18.50;17.50;;;;;20.96;61.01;100181.47;5080506;28;45610;-77
2021/06/27 02:29:59;;;;;;;;;22.00;19.50;;;;;20.97;60.94;100175.22;5078788;28;53739;-77
2021/06/27 02:32:25;;;;;;;;;20.00;18.00;;;;;20.97;61.05;100169.06;5078796;28;52213;-78
2021/06/27 02:34:51;;;;;;;;;19.75;18.50;;;;;20.96;61.11;100164.72;5077369;28;49881;-76
2021/06/27 02:37:16;;;;;;;;;15.75;15.50;;;;;20.94;60.94;100151.56;5075785;28;45577;-78
2021/06/27 02:39:42;;;;;;;;;17.00;16.75;;;;;20.94;60.81;100148.91;5075892;28;45487;-77
2021/06/27 02:42:08;;;;;;;;;17.75;17.25;;;;;20.94;60.85;100154.22;5075063;28;45550;-75
2021/06/27 02:44:33;;;;;;;;;23.25;20.25;;;;;20.94;60.94;100135.63;5091982;27;45426;-78
2021/06/27 02:46:59;;;;;;;;;20.00;19.75;;;;;20.95;60.94;100136.47;5075924;28;45793;-77
2021/06/27 02:49:24;;;;;;;;;19.25;17.50;;;;;20.95;60.98;100133.81;5090991;27;50760;-77
2021/06/27 02:51:50;;;;;;;;;22.50;20.75;;;;;20.94;60.97;100132.97;5076339;28;45440;-77
2021/06/27 02:54:15;;;;;;;;;17.75;17.50;;;;;20.94;61.38;100130.31;5075316;28;55511;-78
2021/06/27 02:56:40;;;;;;;;;22.50;19.75;;;;;20.94;61.17;100130.31;5093225;27;45486;-78
2021/06/27 02:59:06;;;;;;;;;21.75;20.00;;;;;20.93;61.27;100133.94;5074723;28;47004;-77
2021/06/27 03:01:31;;;;;;;;;18.25;17.50;;;;;20.93;61.22;100125.13;5074785;28;58461;-78
2021/06/27 03:03:57;;;;;;;;;21.75;19.00;;;;;20.92;61.51;100128.75;5074748;28;45428;-77
2021/06/27 03:06:22;;;;;;;;;20.00;17.75;;;;;20.90;61.44;100128.84;5075831;28;46724;-77
2021/06/27 03:08:47;;;;;;;;;20.75;20.00;;;;;20.89;61.35;100118.34;5074097;28;46188;-76
2021/06/27 03:11:13;;;;;;;;;18.00;18.00;;;;;20.88;61.45;100127.28;5057131;28;50756;-76
2021/06/27 03:13:40;;;;;;;;;20.50;19.25;;;;;20.86;61.46;100122.09;5057603;28;45493;-76
2021/06/27 03:16:06;;;;;;;;;21.25;20.50;;;;;20.84;61.50;100123.16;5075007;28;45415;-76
2021/06/27 03:18:31;;;;;;;;;18.50;18.50;;;;;20.80;61.48;100126.97;5075585;28;46127;-75
2021/06/27 03:20:56;;;;;;;;;19.50;18.00;;;;;20.75;61.46;100120.22;5056902;28;45617;-75
2021/06/27 03:23:22;;;;;;;;;23.00;18.75;;;;;20.73;61.22;100123.94;5091913;27;45299;-76
2021/06/27 03:25:47;;;;;;;;;20.50;18.25;;;;;20.70;61.40;100129.50;5074880;28;45515;-76
2021/06/27 03:28:13;;;;;;;;;21.00;17.25;;;;;20.66;61.79;100117.41;5056875;28;46606;-77
2021/06/27 03:30:39;;;;;;;;;22.75;19.00;;;;;20.63;61.44;100125.59;5074335;28;45763;-76
2021/06/27 03:33:05;;;;;;;;;17.00;16.25;;;;;20.60;61.74;100126.66;5075865;28;45782;-77
2021/06/27 03:35:31;;;;;;;;;23.25;19.00;;;;;20.59;61.57;100132.06;5077401;27;45464;-76
2021/06/27 03:38:10;;;;;;;;;12.75;12.25;;;;;20.55;61.56;100128.81;5072339;28;46382;-75
2021/06/27 03:40:36;;;;;;;;;19.50;16.50;;;;;20.53;61.62;100133.38;5058126;28;45370;-77
2021/06/27 03:43:01;;;;;;;;;19.00;19.00;;;;;20.55;61.78;100122.66;5057265;28;45476;-75
2021/06/27 03:45:28;;;;;;;;;16.75;15.00;;;;;20.54;61.72;100108.53;5057372;28;45600;-75
2021/06/27 03:47:54;;;;;;;;;20.00;19.50;;;;;20.54;61.44;100103.22;5075146;27;45514;-79
2021/06/27 03:50:19;;;;;;;;;19.75;16.25;;;;;20.55;61.50;100101.44;5076933;28;45696;-76
2021/06/27 03:52:46;;;;;;;;;18.25;17.25;;;;;20.54;61.93;100110.34;5078188;28;45430;-74
2021/06/27 03:55:12;;;;;;;;;20.00;17.75;;;;;20.53;61.58;100117.47;5062943;28;45466;-75
2021/06/27 03:57:37;;;;;;;;;18.50;16.75;;;;;20.53;61.82;100130.72;5075166;28;47129;-77
2021/06/27 04:00:05;;;;;;;;;14.50;12.25;;;;;20.51;61.75;100131.81;5074764;28;45366;-77
2021/06/27 04:02:30;;;;;;;;;19.75;18.00;;;;;20.47;62.04;100141.78;5076183;28;45444;-77
2021/06/27 04:04:55;;;;;;;;;19.75;18.25;;;;;20.47;61.61;100141.78;5075902;28;45227;-76
2021/06/27 04:07:21;;;;;;;;;18.00;15.25;;;;;20.45;61.98;100143.72;5092025;27;47976;-77
2021/06/27 04:09:46;;;;;;;;;18.50;15.50;;;;;20.46;61.93;100149.88;5075598;28;45241;-79
2021/06/27 04:12:12;;;;;;;;;20.25;18.50;;;;;20.47;61.66;100151.56;5073270;28;49793;-78
2021/06/27 04:14:37;;;;;;;;;17.50;17.50;;;;;20.47;62.02;100141.78;5074963;28;45480;-78
2021/06/27 04:17:02;;;;;;;;;22.00;20.25;;;;;20.50;61.87;100141.56;5057208;28;58186;-78
2021/06/27 04:19:28;;;;;;;;;18.50;18.50;;;;;20.51;61.89;100142.41;5073372;28;45803;-79
2021/06/27 04:21:53;;;;;;;;;18.75;17.75;;;;;20.52;62.00;100141.44;5074381;28;45838;-78
2021/06/27 04:24:19;;;;;;;;;21.25;17.75;;;;;20.50;62.07;100132.75;5074649;28;45502;-76
2021/06/27 04:26:44;;;;;;;;;20.75;18.00;;;;;20.49;62.02;100131.91;5073619;28;46884;-75
2021/06/27 04:29:13;;;;;;;;;17.25;17.25;;;;;20.49;61.92;100133.72;5071788;28;62171;-79
2021/06/27 04:31:40;;;;;;;;;22.25;19.50;;;;;20.47;61.84;100130.34;5072578;28;45392;-77
2021/06/27 04:34:05;;;;;;;;;22.25;17.75;;;;;20.47;61.91;100130.34;5055888;28;45647;-77
2021/06/27 04:36:31;;;;;;;;;21.50;19.25;;;;;20.43;61.82;100127.06;5073806;27;46478;-77
2021/06/27 04:38:56;;;;;;;;;19.50;19.50;;;;;20.42;62.17;100123.56;5072273;28;45477;-78
2021/06/27 04:41:22;;;;;;;;;24.25;21.00;;;;;20.40;62.27;100129.91;5073279;28;45522;-78
2021/06/27 04:43:47;;;;;;;;;17.00;16.25;;;;;20.39;61.86;100136.19;5072509;28;50717;-76
2021/06/27 04:46:13;;;;;;;;;22.00;20.75;;;;;20.36;62.21;100126.59;5072685;28;46322;-77
2021/06/27 04:48:38;;;;;;;;;19.25;17.50;;;;;20.35;62.19;100122.25;5075670;28;45914;-79
2021/06/27 04:51:04;;;;;;;;;21.25;16.75;;;;;20.33;61.92;100118.88;5077299;28;45357;-79
2021/06/27 04:53:29;;;;;;;;;17.25;16.50;;;;;20.34;62.41;100131.19;5075960;28;51052;-76
2021/06/27 04:55:58;;;;;;;;;18.50;17.50;;;;;20.32;62.14;100127.78;5076467;28;60834;-76
2021/06/27 04:58:25;;;;;;;;;17.50;16.75;;;;;20.33;62.14;100132.13;5075760;28;45512;-77
2021/06/27 05:00:50;;;;;;;;;18.75;17.75;;;;;20.35;62.23;100135.53;5078048;27;45492;-75
2021/06/27 05:03:16;;;;;;;;;17.50;16.75;;;;;20.37;62.29;100130.94;5058915;28;50180;-76
2021/06/27 05:05:41;;;;;;;;;20.00;17.50;;;;;20.37;62.00;100128.31;5076521;27;45335;-76
2021/06/27 05:08:06;;;;;;;;;20.25;18.50;;;;;20.39;62.03;100134.38;5075535;28;50414;-75
2021/06/27 05:10:32;;;;;;;;;18.75;18.75;;;;;20.40;62.16;100138.75;5075653;28;56398;-78
2021/06/27 05:12:58;;;;;;;;;17.25;16.75;;;;;20.43;62.01;100129.72;5059125;28;60336;-79
2021/06/27 05:15:23;;;;;;;;;19.75;16.75;;;;;20.44;61.88;100137.56;5078397;28;46340;-75
2021/06/27 05:17:48;;;;;;;;;23.00;21.50;;;;;20.47;62.08;100139.13;5077181;28;45474;-77
2021/06/27 05:20:14;;;;;;;;;21.50;18.50;;;;;20.47;62.20;100140.94;5077251;28;45474;-78
2021/06/27 05:22:40;;;;;;;;;16.00;15.75;;;;;20.48;62.40;100132.88;5075815;28;45535;-79
2021/06/27 05:25:06;;;;;;;;;16.50;16.50;;;;;20.50;62.05;100133.59;5060587;28;47043;-79
2021/06/27 05:27:32;;;;;;;;;18.50;17.75;;;;;20.48;62.29;100122.25;5045598;28;45776;-79
2021/06/27 05:29:57;;;;;;;;;19.50;18.25;;;;;20.48;62.12;100130.22;5046590;28;45379;-76
2021/06/27 05:32:23;;;;;;;;;18.25;16.50;;;;;20.48;61.96;100121.41;5077639;28;45389;-78
2021/06/27 05:34:48;;;;;;;;;17.50;16.25;;;;;20.50;62.52;100124.81;5076828;28;46172;-77
2021/06/27 05:37:13;;;;;;;;;18.00;18.00;;;;;20.51;62.17;100134.44;5076929;27;50945;-79
2021/06/27 05:39:39;;;;;;;;;18.00;15.50;;;;;20.53;61.91;100135.19;5041949;28;45374;-81
2021/06/27 05:42:05;;;;;;;;;19.00;16.25;;;;;20.53;62.16;100135.19;5094504;27;45273;-80
2021/06/27 05:44:31;;;;;;;;;20.00;18.25;;;;;20.52;62.43;100133.50;5093568;27;48304;-79
2021/06/27 05:46:56;;;;;;;;;17.75;17.75;;;;;20.51;62.05;100132.66;5075369;28;64234;-81
2021/06/27 05:49:22;;;;;;;;;18.00;15.00;;;;;20.51;62.55;100126.50;5076549;28;45471;-80
2021/06/27 05:51:47;;;;;;;;;21.75;18.00;;;;;20.51;62.21;100137.09;5078303;27;45667;-82
2021/06/27 05:54:13;;;;;;;;;15.50;15.50;;;;;20.48;62.13;100124.91;5042473;28;47948;-79
2021/06/27 05:56:38;;;;;;;;;17.00;16.00;;;;;20.49;62.09;100125.75;5062288;28;45393;-80
2021/06/27 05:59:04;;;;;;;;;20.50;19.50;;;;;20.50;62.40;100125.66;5077076;28;45511;-79
2021/06/27 06:01:30;;;;;;;;;19.25;17.25;;;;;20.53;62.10;100124.56;5060001;28;45588;-80
2021/06/27 06:03:55;;;;;;;;;19.75;18.00;;;;;20.52;62.97;100126.38;5041269;28;46863;-74
2021/06/27 06:06:21;;;;;;;;;17.75;16.25;;;;;20.44;62.99;100124.28;5075732;28;58509;-74
2021/06/27 06:08:46;;;;;;;;;21.25;19.00;;;;;20.37;63.54;100136.25;5075771;28;55729;-73
2021/06/27 06:11:12;;;;;;;;;19.50;18.00;;;;;20.29;63.82;100145.72;5075440;28;45507;-79
2021/06/27 06:13:38;;;;;;;;;19.75;18.75;;;;;20.21;64.17;100140.16;5076701;28;45496;-75
2021/06/27 06:16:04;;;;;;;;;19.50;19.50;;;;;20.17;64.56;100143.94;5075395;28;45863;-77
2021/06/27 06:18:30;;;;;;;;;22.25;19.75;;;;;20.12;64.29;100146.94;5078328;28;45253;-75
2021/06/27 06:20:55;;;;;;;;;19.25;17.75;;;;;20.02;64.29;100140.59;5076017;28;45540;-74
2021/06/27 06:23:21;;;;;;;;;21.75;17.00;;;;;19.95;64.99;100134.88;5074690;27;46555;-74
2021/06/27 06:25:46;;;;;;;;;18.25;17.50;;;;;19.91;65.07;100135.22;5090564;27;56550;-75
2021/06/27 06:28:12;;;;;;;;;25.25;17.50;;;;;19.87;65.40;100137.22;5075176;28;57223;-74
2021/06/27 06:30:37;;;;;;;;;21.50;19.25;;;;;19.84;65.40;100130.34;5058125;28;53086;-73
2021/06/27 06:33:03;;;;;;;;;19.00;19.00;;;;;19.82;65.78;100134.06;5075729;28;45380;-74
2021/06/27 06:35:28;;;;;;;;;21.00;15.75;;;;;19.80;65.74;100134.16;5075525;28;45456;-74
2021/06/27 06:37:54;;;;;;;;;20.75;16.75;;;;;19.78;66.02;100135.25;5076509;28;45416;-74
2021/06/27 06:40:19;;;;;;;;;13.50;13.25;;;;;19.69;66.22;100127.91;5078277;28;45503;-75
2021/06/27 06:42:44;;;;;;;;;20.50;18.75;;;;;19.63;66.63;100139.78;5076330;28;57263;-74
2021/06/27 06:45:10;;;;;;;;;25.50;21.25;;;;;19.59;66.67;100127.72;5076121;27;45440;-74
2021/06/27 06:47:35;;;;;;;;;22.25;19.25;;;;;19.59;67.52;100138.31;5074298;28;53983;-73
2021/06/27 06:50:01;;;;;;;;;17.25;17.25;;;;;19.58;66.65;100133.97;5076328;28;46023;-74
2021/06/27 06:52:26;;;;;;;;;18.25;18.25;;;;;19.63;66.97;100134.50;5074582;28;45515;-75
2021/06/27 06:54:51;;;;;;;;;20.75;18.50;;;;;19.65;66.52;100135.22;5074779;28;46134;-73
2021/06/27 06:57:17;;;;;;;;;22.75;20.50;;;;;19.71;66.53;100141.91;5090572;27;47035;-73
2021/06/27 06:59:42;;;;;;;;;18.50;18.00;;;;;19.77;66.64;100138.84;5076916;28;45602;-75
2021/06/27 07:02:08;;;;;;;;;20.25;16.50;;;;;19.85;65.88;100147.09;5075479;28;45818;-73
2021/06/27 07:04:33;;;;;;;;;23.25;22.00;;;;;19.94;66.25;100146.44;5076790;28;45271;-76
2021/06/27 07:06:59;;;;;;;;;21.50;17.25;;;;;20.01;66.19;100144.22;5075270;28;45401;-75
2021/06/27 07:09:24;;;;;;;;;21.25;20.00;;;;;20.08;65.41;100150.78;5075921;28;47967;-75
2021/06/27 07:11:49;;;;;;;;;21.25;18.75;;;;;20.20;65.86;100143.75;5073476;28;45529;-74
2021/06/27 07:14:15;;;;;;;;;20.50;16.50;;;;;20.30;65.78;100144.78;5074150;28;45701;-76
2021/06/27 07:16:40;;;;;;;;;21.25;19.25;;;;;20.40;64.86;100135.22;5074189;28;45762;-75
2021/06/27 07:19:05;;;;;;;;;17.75;17.50;;;;;20.46;64.67;100141.91;5075313;28;45663;-77
2021/06/27 07:21:31;;;;;;;;;16.50;16.50;;;;;20.51;64.80;100142.41;5076287;28;58103;-76
2021/06/27 07:23:56;;;;;;;;;17.25;16.00;;;;;20.57;64.13;100140.16;5074373;28;45358;-74
2021/06/27 07:26:22;;;;;;;;;18.25;16.50;;;;;20.62;64.32;100151.28;5057262;28;45839;-73
2021/06/27 07:28:47;;;;;;;;;18.75;18.75;;;;;20.66;64.12;100149.25;5076051;28;45663;-75
2021/06/27 07:31:13;;;;;;;;;19.50;18.50;;;;;20.71;63.86;100144.44;5074895;28;60405;-74
2021/06/27 07:33:39;;;;;;;;;23.25;20.25;;;;;20.76;64.12;100144.94;5075497;28;45553;-75
2021/06/27 07:36:05;;;;;;;;;18.00;17.75;;;;;20.87;63.97;100142.38;5073258;28;45817;-74
2021/06/27 07:38:30;;;;;;;;;21.00;20.00;;;;;20.95;63.76;100139.13;5074051;28;45908;-76
2021/06/27 07:40:56;;;;;;;;;20.00;18.75;;;;;21.01;63.72;100138.66;5073668;28;64420;-75
2021/06/27 07:43:21;;;;;;;;;20.00;19.00;;;;;21.04;63.31;100134.00;5072877;28;45471;-76
2021/06/27 07:45:47;;;;;;;;;18.25;17.75;;;;;21.11;63.25;100136.16;5073777;27;45570;-77
2021/06/27 07:48:12;;;;;;;;;21.25;20.75;;;;;21.14;63.19;100133.28;5056434;28;45611;-77
2021/06/27 07:50:38;;;;;;;;;20.75;20.00;;;;;21.17;63.14;100125.06;5074652;28;46419;-78
2021/06/27 07:53:03;;;;;;;;;20.75;19.50;;;;;21.14;63.12;100115.53;5073266;28;45760;-77
2021/06/27 07:55:29;;;;;;;;;23.25;20.50;;;;;21.19;63.22;100125.81;5090857;27;45413;-75
2021/06/27 07:57:54;;;;;;;;;21.75;21.75;;;;;21.22;63.01;100113.13;5075355;28;45354;-75
2021/06/27 08:00:20;;;;;;;;;22.25;20.25;;;;;21.29;62.83;100116.22;5043403;28;46244;-74
2021/06/27 08:02:46;;;;;;;;;23.50;20.50;;;;;21.35;62.77;100115.75;5068871;28;45777;-74
2021/06/27 08:05:11;;;;;;;;;21.50;20.75;;;;;21.38;62.56;100118.16;5088208;27;45343;-76
2021/06/27 08:07:37;;;;;;;;;22.75;20.50;;;;;21.42;62.41;100113.44;5071831;28;45302;-76
2021/06/27 08:10:03;;;;;;;;;22.75;21.50;;;;;21.46;62.58;100115.75;5074760;28;46874;-74
2021/06/27 08:12:28;;;;;;;;;27.25;23.75;;;;;21.46;62.62;100112.25;5073906;28;45810;-76
2021/06/27 08:14:54;;;;;;;;;25.25;20.00;;;;;21.46;62.30;100112.25;5072371;28;45466;-75
2021/06/27 08:17:19;;;;;;;;;24.50;20.50;;;;;21.49;62.21;100109.38;5074872;28;45496;-74
2021/06/27 08:19:46;;;;;;;;;26.25;21.50;;;;;21.56;62.22;100107.91;5055737;28;57450;-77
2021/06/27 08:22:12;;;;;;;;;17.75;17.25;;;;;21.61;62.19;100117.22;5075359;28;45428;-75
2021/06/27 08:24:38;;;;;;;;;24.25;22.25;;;;;21.67;61.72;100108.75;5075983;28;45555;-74
2021/06/27 08:27:03;;;;;;;;;21.50;21.25;;;;;21.71;61.74;100108.53;5077325;28;45366;-75
2021/06/27 08:29:29;;;;;;;;;22.75;22.75;;;;;21.71;61.67;100108.53;5078382;28;46263;-75
2021/06/27 08:31:54;;;;;;;;;28.50;23.50;;;;;21.74;61.49;100114.47;5059357;28;45923;-74
2021/06/27 08:34:19;;;;;;;;;24.25;21.75;;;;;21.80;61.96;100115.78;5077175;28;50440;-74
2021/06/27 08:36:45;;;;;;;;;24.00;21.75;;;;;21.87;61.68;100124.94;5060000;28;45429;-76
2021/06/27 08:39:10;;;;;;;;;21.50;20.50;;;;;21.94;61.50;100127.03;5078375;28;47267;-75
2021/06/27 08:41:36;;;;;;;;;29.00;24.25;;;;;22.04;60.92;100135.13;5076126;28;59064;-76
2021/06/27 08:44:01;;;;;;;;;25.25;21.50;;;;;22.05;61.06;100150.13;5078263;28;45372;-75
2021/06/27 08:46:27;;;;;;;;;25.75;21.25;;;;;22.02;61.14;100147.69;5077121;27;45724;-75
2021/06/27 08:48:52;;;;;;;;;24.75;20.75;;;;;21.96;60.85;100141.03;5075917;28;46014;-75
2021/06/27 08:51:18;;;;;;;;;20.00;19.00;;;;;21.95;61.11;100138.50;5076417;28;54386;-75
2021/06/27 08:53:43;;;;;;;;;25.50;22.25;;;;;21.91;61.62;100145.03;5058963;28;59582;-74
2021/06/27 08:56:09;;;;;;;;;23.50;22.50;;;;;21.88;61.33;100132.81;5078831;28;45342;-74
2021/06/27 08:58:39;;;;;;;;;22.25;22.00;;;;;21.84;61.69;100141.16;5076202;28;47180;-75
2021/06/27 09:01:07;;;;;;;;;17.25;16.75;;;;;21.82;61.69;100137.75;5094807;27;45471;-74
2021/06/27 09:03:33;;;;;;;;;19.75;17.50;;;;;21.81;61.67;100130.75;5077982;28;45375;-74
2021/06/27 09:05:59;;;;;;;;;21.00;20.25;;;;;21.82;61.99;100133.28;5076254;27;45887;-74
2021/06/27 09:08:25;;;;;;;;;24.75;21.75;;;;;21.83;61.92;100139.47;5076087;28;46008;-75
2021/06/27 09:10:50;;;;;;;;;22.25;21.50;;;;;21.79;62.32;100148.66;5076758;28;45525;-76
2021/06/27 09:13:15;;;;;;;;;25.00;22.50;;;;;21.79;62.59;100151.31;5076907;28;45460;-76
2021/06/27 09:15:53;;;;;;;;;23.50;23.50;;;;;21.73;62.31;100144.66;5075779;28;45449;-76
2021/06/27 09:18:18;;;;;;;;;22.25;21.50;;;;;21.70;62.44;100149.38;5075832;28;48201;-74
2021/06/27 09:20:45;;;;;;;;;26.75;23.25;;;;;21.64;63.11;100154.19;5076957;28;45473;-74
2021/06/27 09:23:12;;;;;;;;;25.75;23.75;;;;;21.64;63.25;100150.69;5075527;28;45706;-75
2021/06/27 09:25:38;;;;;;;;;23.25;23.00;;;;;21.61;63.52;100148.25;5077325;28;45305;-76
2021/06/27 09:28:10;;;;;;;;;25.25;25.25;;;;;21.60;63.54;100147.41;5075769;28;45951;-75
2021/06/27 09:30:42;;;;;;;;;21.00;16.00;;;;;21.58;63.54;100152.00;5076539;28;45408;-74
2021/06/27 09:33:11;;;;;;;;;25.50;21.50;;;;;21.55;63.65;100151.41;5076058;28;45430;-74
2021/06/27 09:35:47;;;;;;;;;26.00;23.25;;;;;21.53;63.70;100153.34;5077534;27;45547;-73
2021/06/27 09:38:30;;;;;;;;;22.50;22.50;;;;;21.54;64.17;100155.03;5075303;28;47414;-74
2021/06/27 09:41:11;;;;;;;;;26.50;23.25;;;;;21.55;63.71;100157.56;5075956;27;45654;-75
2021/06/27 09:43:37;;;;;;;;;24.75;20.25;;;;;21.54;64.00;100160.34;5076654;28;45342;-75
2021/06/27 09:46:11;;;;;;;;;29.00;24.75;;;;;21.57;63.90;100165.41;5076545;28;45503;-74
2021/06/27 09:48:49;;;;;;;;;26.25;23.75;;;;;21.64;64.68;100169.28;5076263;28;45522;-74
2021/06/27 09:51:15;;;;;;;;;27.00;25.75;;;;;21.69;64.22;100163.59;5076178;27;45319;-74
2021/06/27 09:53:45;;;;;;;;;22.75;20.50;;;;;21.75;63.82;100164.00;5076667;27;45536;-76
2021/06/27 09:56:11;;;;;;;;;27.75;26.75;;;;;21.83;63.57;100171.34;5077304;27;45382;-74
2021/06/27 09:58:36;;;;;;;;;26.25;22.25;;;;;21.86;63.99;100176.44;5075115;28;46415;-74
2021/06/27 10:01:03;;;;;;;;;26.25;23.25;;;;;21.87;63.50;100178.13;5092949;27;45457;-74
2021/06/27 10:03:29;;;;;;;;;24.75;23.25;;;;;21.87;63.75;100178.13;5075505;28;45351;-74
2021/06/27 10:06:07;;;;;;;;;34.50;28.75;;;;;21.84;63.89;100186.34;5075714;28;45413;-75
2021/06/27 10:08:33;;;;;;;;;26.50;26.50;;;;;21.84;63.80;100181.88;5041102;28;47340;-77
2021/06/27 10:11:14;;;;;;;;;30.25;26.50;;;;;21.84;64.20;100194.31;5077021;28;45455;-74
2021/06/27 10:13:46;;;;;;;;;26.75;22.50;;;;;21.82;63.85;100193.59;5076103;28;45415;-75
2021/06/27 10:16:16;;;;;;;;;26.75;25.00;;;;;21.80;64.48;100198.19;5079066;28;45556;-76
2021/06/27 10:18:42;;;;;;;;;35.75;33.25;;;;;21.79;64.47;100197.34;5078394;27;45676;-74
2021/06/27 10:21:08;;;;;;;;;44.50;34.25;;;;;21.84;63.99;100202.28;5076546;28;45250;-75
2021/06/27 10:23:33;;;;;;;;;31.75;28.50;;;;;21.88;64.42;100198.44;5077950;27;45404;-74
2021/06/27 10:26:02;;;;;;;;;28.75;24.00;;;;;21.97;64.51;100200.38;5075264;28;45478;-74
2021/06/27 10:28:27;;;;;;;;;30.50;27.25;;;;;22.03;64.30;100207.03;5076944;28;45757;-75
2021/06/27 10:30:52;;;;;;;;;28.75;26.25;;;;;22.11;64.10;100204.63;5074902;28;45429;-75
2021/06/27 10:33:18;;;;;;;;;39.00;33.50;;;;;22.16;63.85;100206.00;5076283;28;45335;-75
2021/06/27 10:35:50;;;;;;;;;34.25;27.50;;;;;22.25;63.92;100205.25;5075625;28;45637;-74
2021/06/27 10:38:20;;;;;;;;;30.75;26.75;;;;;22.34;63.89;100208.13;5058733;28;45491;-75
2021/06/27 10:40:53;;;;;;;;;30.00;29.25;;;;;22.44;63.65;100215.28;5074693;28;45411;-75
2021/06/27 10:43:19;;;;;;;;;25.25;22.50;;;;;22.49;63.37;100212.25;5058599;28;45423;-75
2021/06/27 10:45:47;;;;;;;;;24.25;24.25;;;;;22.48;63.28;100214.06;5075722;27;45275;-75
2021/06/27 10:48:31;;;;;;;;;29.50;28.00;;;;;22.45;63.74;100208.13;5076236;27;45909;-75
2021/06/27 10:50:57;;;;;;;;;34.25;29.25;;;;;22.43;63.77;100213.59;5075278;27;45452;-74
2021/06/27 10:53:22;;;;;;;;;29.25;27.75;;;;;22.39;64.16;100216.63;5074592;28;45379;-74
2021/06/27 10:55:48;;;;;;;;;33.25;30.50;;;;;22.40;64.03;100215.66;5090879;27;45593;-72
2021/06/27 10:58:16;;;;;;;;;30.75;27.00;;;;;22.38;63.97;100212.28;5091498;27;47305;-74
2021/06/27 11:00:57;;;;;;;;;29.50;27.50;;;;;22.36;64.66;100209.72;5075357;28;45748;-75
2021/06/27 11:03:42;;;;;;;;;29.75;29.00;;;;;22.34;64.65;100210.78;5076460;27;45274;-75
2021/06/27 11:06:33;;;;;;;;;34.75;32.25;;;;;22.33;64.80;100211.75;5075697;27;45324;-74